Nissos Mykonos — SYJZ — position and weather

sailwx.info

Track history (hours):
 
Tides and Currents Weather Stations Pressure Air Temp Water Temp Dewpoint Dewpoint Depression Visibility Wind Speed Wind Dir Waves Ship Positions

Nissos Mykonos

Last reported at 2014-Nov-26 22:33 UTC. Time now 2014-Nov-27 14:26 UTC.
Position N 39°59' E 024°55'.

Length 141 m; draft 5.2 m.

Type: Passenger vessel. MMSI: 240389000.

Date/timePositionNaut miles runAvg speedWind from/ knotsBaromVisibWave heightAir tempDewpointWater temp
2014-Nov-26 22:33N 39°59' E 024°55'2120.8
2014-Nov-26 21:34N 40°18' E 024°43'2221.5
2014-Nov-26 20:33N 40°37' E 024°30'2019.7
2014-Nov-26 19:33N 40°56' E 024°25'0 0.0
2014-Nov-26 18:33N 40°56' E 024°25'0 0.0
2014-Nov-26 17:33N 40°56' E 024°25'0 0.3
2014-Nov-26 16:33N 40°56' E 024°24'2121.2
2014-Nov-26 15:34N 40°35' E 024°30'2221.8
2014-Nov-26 14:33N 40°16' E 024°44'164 9.0
2014-Nov-25 20:17N 37°35' E 025°26'912.5
2014-Nov-25 19:34N 37°28' E 025°19'1816.9
2014-Nov-25 18:29N 37°26' E 024°57'1615.0
2014-Nov-25 17:24N 37°34' E 024°39'1720.3
2014-Nov-25 16:33N 37°31' E 024°18'2621.3
2014-Nov-25 15:20N 37°39' E 023°47'1620.1
2014-Nov-25 14:33N 37°53' E 023°37'4 4.0
2014-Nov-25 13:33N 37°57' E 023°38'0 0.0
2014-Nov-25 12:34N 37°57' E 023°38'0 0.0
2014-Nov-25 11:33N 37°57' E 023°38'0 0.0
2014-Nov-25 10:33N 37°57' E 023°38'0 0.0
2014-Nov-25 09:33N 37°57' E 023°38'0 0.0
2014-Nov-25 08:33N 37°57' E 023°38'0 0.0
2014-Nov-25 07:33N 37°57' E 023°38'0 0.0
2014-Nov-25 06:33N 37°57' E 023°38'0 0.0
2014-Nov-25 05:33N 37°57' E 023°38'0 0.0
2014-Nov-25 04:33N 37°57' E 023°38'0 0.0
2014-Nov-25 03:33N 37°57' E 023°38'0 0.0
2014-Nov-25 02:33N 37°57' E 023°38'0 0.0
2014-Nov-25 01:33N 37°57' E 023°38'0 0.0
2014-Nov-25 00:33N 37°57' E 023°38'0 0.0
2014-Nov-24 23:33N 37°57' E 023°38'0 0.0
2014-Nov-24 22:33N 37°57' E 023°38'0 0.0
2014-Nov-24 21:33N 37°57' E 023°38'0 0.0
2014-Nov-24 20:33N 37°57' E 023°38'0 0.0
2014-Nov-24 19:33N 37°57' E 023°38'0 0.0
2014-Nov-24 18:33N 37°57' E 023°38'0 0.0
2014-Nov-24 17:33N 37°57' E 023°38'0 0.0
2014-Nov-24 16:33N 37°57' E 023°38'0 0.0
2014-Nov-24 15:33N 37°57' E 023°38'0 0.0
2014-Nov-24 14:33N 37°57' E 023°38'0 0.0
2014-Nov-24 13:33N 37°57' E 023°38'0 0.0
2014-Nov-24 12:33N 37°57' E 023°38'0 0.0
2014-Nov-24 11:33N 37°57' E 023°38'0 0.0
2014-Nov-24 10:34N 37°57' E 023°38'0 0.0
2014-Nov-24 09:33N 37°57' E 023°38'0 0.0
2014-Nov-24 08:33N 37°57' E 023°38'0 0.0
2014-Nov-24 07:33N 37°57' E 023°38'0 0.0
2014-Nov-24 06:33N 37°57' E 023°38'0 0.0
2014-Nov-24 05:33N 37°57' E 023°38'0 0.0
2014-Nov-24 04:33N 37°57' E 023°38'0 0.0
2014-Nov-24 03:33N 37°57' E 023°38'0 0.0
2014-Nov-24 02:33N 37°57' E 023°38'0 0.0
2014-Nov-24 01:33N 37°57' E 023°38'0 0.0
2014-Nov-24 00:33N 37°57' E 023°38'0 0.0
2014-Nov-23 23:33N 37°57' E 023°38'0 0.0
2014-Nov-23 22:33N 37°57' E 023°38'0 0.4
2014-Nov-23 21:33N 37°56' E 023°38'3818.8
2014-Nov-23 19:33N 37°31' E 024°13'2120.5
2014-Nov-23 18:31N 37°33' E 024°40'1515.4
2014-Nov-23 17:33N 37°26' E 024°57'1717.4
2014-Nov-23 16:33N 37°28' E 025°18'1211.9
2014-Nov-23 15:33N 37°36' E 025°29'147 8.6
2014-Nov-22 22:25N 40°01' E 024°55'1821.2
2014-Nov-22 21:33N 40°17' E 024°42'2221.5
2014-Nov-22 20:33N 40°36' E 024°30'2120.5
2014-Nov-22 19:33N 40°56' E 024°24'0 0.1
2014-Nov-22 18:33N 40°56' E 024°25'0 0.0
2014-Nov-22 17:33N 40°56' E 024°25'0 0.0
2014-Nov-22 16:33N 40°56' E 024°25'1110.7
2014-Nov-22 15:34N 40°45' E 024°27'2121.4
2014-Nov-22 14:34N 40°25' E 024°37'2621.8
2014-Nov-22 13:21N 40°03' E 024°54'148 8.8
2014-Nov-21 20:30N 37°38' E 025°36'1717.7
2014-Nov-21 19:33N 37°28' E 025°19'1716.9
2014-Nov-21 18:33N 37°26' E 024°58'8 8.3
2014-Nov-21 17:33N 37°32' E 024°50'2221.5
2014-Nov-21 16:33N 37°31' E 024°23'3021.0
2014-Nov-21 15:07N 37°39' E 023°46'1120.7
2014-Nov-21 14:33N 37°48' E 023°38'9 8.6
2014-Nov-21 13:33N 37°57' E 023°38'0 0.0
2014-Nov-21 12:33N 37°57' E 023°38'0 0.0
2014-Nov-21 11:33N 37°57' E 023°38'0 0.0
2014-Nov-21 10:33N 37°57' E 023°38'0 0.0
2014-Nov-21 09:33N 37°57' E 023°38'0 0.0
2014-Nov-21 08:33N 37°57' E 023°38'0 0.0
2014-Nov-21 07:34N 37°57' E 023°38'0 0.0
2014-Nov-21 06:33N 37°57' E 023°38'0 0.0
2014-Nov-21 05:33N 37°57' E 023°38'0 0.0
2014-Nov-21 04:33N 37°57' E 023°38'0 0.0
2014-Nov-21 01:22N 37°57' E 023°38'0 0.0
2014-Nov-20 23:33N 37°57' E 023°38'0 0.0
2014-Nov-20 22:33N 37°57' E 023°38'0 0.0
2014-Nov-20 21:33N 37°57' E 023°38'1716.7
2014-Nov-20 20:33N 37°41' E 023°46'2721.5
2014-Nov-20 19:18N 37°30' E 024°18'1621.8
2014-Nov-20 18:34N 37°33' E 024°37'1714.1
2014-Nov-20 17:23N 37°26' E 024°57'1720.1
2014-Nov-20 16:33N 37°28' E 025°17'1211.7
2014-Nov-20 15:33N 37°37' E 025°27'163 9.1
2014-Nov-19 21:34N 40°16' E 024°43'2221.8
2014-Nov-19 20:34N 40°36' E 024°29'2120.6
2014-Nov-19 19:33N 40°56' E 024°24'0 0.2
2014-Nov-19 18:33N 40°56' E 024°25'0 0.0
2014-Nov-19 17:33N 40°56' E 024°25'4 4.2
2014-Nov-19 16:34N 40°52' E 024°26'2121.0
2014-Nov-19 15:34N 40°31' E 024°33'2120.8
2014-Nov-19 14:34N 40°13' E 024°46'165 9.6
2014-Nov-18 21:22N 37°39' E 026°01'2021.3
2014-Nov-18 20:26N 37°34' E 025°36'1517.5
2014-Nov-18 19:33N 37°28' E 025°19'1616.3
2014-Nov-18 18:33N 37°26' E 024°59'9 8.5
2014-Nov-18 17:34N 37°32' E 024°50'2221.5
2014-Nov-18 16:33N 37°31' E 024°23'2821.2
2014-Nov-18 15:13N 37°38' E 023°48'1320.2
2014-Nov-18 14:34N 37°48' E 023°38'8 2.0
2014-Nov-18 10:33N 37°57' E 023°38'0 0.0
2014-Nov-18 09:33N 37°57' E 023°38'0 0.0
2014-Nov-18 08:33N 37°57' E 023°38'0 0.0
2014-Nov-18 07:33N 37°57' E 023°38'0 0.0
2014-Nov-18 06:33N 37°57' E 023°38'0 0.0
2014-Nov-18 05:33N 37°57' E 023°38'0 0.0
2014-Nov-18 04:24N 37°57' E 023°38'0 0.0
2014-Nov-18 03:33N 37°57' E 023°38'0 0.0
2014-Nov-18 02:33N 37°57' E 023°38'0 0.0
2014-Nov-18 01:33N 37°57' E 023°38'0 0.0
2014-Nov-18 00:33N 37°57' E 023°38'0 0.0
2014-Nov-17 23:33N 37°57' E 023°38'0 0.0
2014-Nov-17 22:33N 37°57' E 023°38'0 0.0
2014-Nov-17 21:33N 37°57' E 023°38'0 0.0
2014-Nov-17 20:33N 37°57' E 023°38'0 0.0
2014-Nov-17 19:33N 37°57' E 023°38'0 0.0
2014-Nov-17 18:33N 37°57' E 023°38'0 0.0
2014-Nov-17 17:33N 37°57' E 023°38'0 0.0
2014-Nov-17 16:34N 37°57' E 023°38'0 0.0
2014-Nov-17 15:33N 37°57' E 023°38'0 0.0
2014-Nov-17 14:33N 37°57' E 023°38'0 0.0
2014-Nov-17 13:33N 37°57' E 023°38'0 0.0
2014-Nov-17 12:33N 37°57' E 023°38'0 0.0
2014-Nov-17 11:33N 37°57' E 023°38'0 0.0
2014-Nov-17 10:33N 37°57' E 023°38'0 0.0
2014-Nov-17 09:33N 37°57' E 023°38'0 0.0
2014-Nov-17 08:33N 37°57' E 023°38'0 0.0
2014-Nov-17 07:33N 37°57' E 023°38'0 0.0
2014-Nov-17 06:33N 37°57' E 023°38'0 0.0
2014-Nov-17 05:33N 37°57' E 023°38'0 0.0
2014-Nov-17 04:33N 37°57' E 023°38'0 0.0
2014-Nov-17 03:33N 37°57' E 023°38'0 0.0
2014-Nov-17 02:33N 37°57' E 023°38'0 0.0
2014-Nov-17 01:33N 37°57' E 023°38'0 0.0
2014-Nov-17 00:33N 37°57' E 023°38'0 0.0
2014-Nov-16 23:33N 37°57' E 023°38'0 0.0
2014-Nov-16 22:33N 37°57' E 023°38'  
Track history (hours):
 
Tides and Currents Weather Stations Pressure Air Temp Water Temp Dewpoint Dewpoint Depression Visibility Wind Speed Wind Dir Waves Ship Positions

Nissos Mykonos

Last reported at 2014-Nov-26 22:33 UTC. Time now 2014-Nov-27 14:26 UTC.
Position N 39°59' E 024°55'.

Length 141 m; draft 5.2 m.

Type: Passenger vessel. MMSI: 240389000.

Date/timePositionNaut miles runAvg speedWind from/ knotsBaromVisibWave heightAir tempDewpointWater temp
2014-Nov-26 22:33N 39°59' E 024°55'2120.8
2014-Nov-26 21:34N 40°18' E 024°43'2221.5
2014-Nov-26 20:33N 40°37' E 024°30'2019.7
2014-Nov-26 19:33N 40°56' E 024°25'0 0.0
2014-Nov-26 18:33N 40°56' E 024°25'0 0.0
2014-Nov-26 17:33N 40°56' E 024°25'0 0.3
2014-Nov-26 16:33N 40°56' E 024°24'2121.2
2014-Nov-26 15:34N 40°35' E 024°30'2221.8
2014-Nov-26 14:33N 40°16' E 024°44'164 9.0
2014-Nov-25 20:17N 37°35' E 025°26'912.5
2014-Nov-25 19:34N 37°28' E 025°19'1816.9
2014-Nov-25 18:29N 37°26' E 024°57'1615.0
2014-Nov-25 17:24N 37°34' E 024°39'1720.3
2014-Nov-25 16:33N 37°31' E 024°18'2621.3
2014-Nov-25 15:20N 37°39' E 023°47'1620.1
2014-Nov-25 14:33N 37°53' E 023°37'4 4.0
2014-Nov-25 13:33N 37°57' E 023°38'0 0.0
2014-Nov-25 12:34N 37°57' E 023°38'0 0.0
2014-Nov-25 11:33N 37°57' E 023°38'0 0.0
2014-Nov-25 10:33N 37°57' E 023°38'0 0.0
2014-Nov-25 09:33N 37°57' E 023°38'0 0.0
2014-Nov-25 08:33N 37°57' E 023°38'0 0.0
2014-Nov-25 07:33N 37°57' E 023°38'0 0.0
2014-Nov-25 06:33N 37°57' E 023°38'0 0.0
2014-Nov-25 05:33N 37°57' E 023°38'0 0.0
2014-Nov-25 04:33N 37°57' E 023°38'0 0.0
2014-Nov-25 03:33N 37°57' E 023°38'0 0.0
2014-Nov-25 02:33N 37°57' E 023°38'0 0.0
2014-Nov-25 01:33N 37°57' E 023°38'0 0.0
2014-Nov-25 00:33N 37°57' E 023°38'0 0.0
2014-Nov-24 23:33N 37°57' E 023°38'0 0.0
2014-Nov-24 22:33N 37°57' E 023°38'0 0.0
2014-Nov-24 21:33N 37°57' E 023°38'0 0.0
2014-Nov-24 20:33N 37°57' E 023°38'0 0.0
2014-Nov-24 19:33N 37°57' E 023°38'0 0.0
2014-Nov-24 18:33N 37°57' E 023°38'0 0.0
2014-Nov-24 17:33N 37°57' E 023°38'0 0.0
2014-Nov-24 16:33N 37°57' E 023°38'0 0.0
2014-Nov-24 15:33N 37°57' E 023°38'0 0.0
2014-Nov-24 14:33N 37°57' E 023°38'0 0.0
2014-Nov-24 13:33N 37°57' E 023°38'0 0.0
2014-Nov-24 12:33N 37°57' E 023°38'0 0.0
2014-Nov-24 11:33N 37°57' E 023°38'0 0.0
2014-Nov-24 10:34N 37°57' E 023°38'0 0.0
2014-Nov-24 09:33N 37°57' E 023°38'0 0.0
2014-Nov-24 08:33N 37°57' E 023°38'0 0.0
2014-Nov-24 07:33N 37°57' E 023°38'0 0.0
2014-Nov-24 06:33N 37°57' E 023°38'0 0.0
2014-Nov-24 05:33N 37°57' E 023°38'0 0.0
2014-Nov-24 04:33N 37°57' E 023°38'0 0.0
2014-Nov-24 03:33N 37°57' E 023°38'0 0.0
2014-Nov-24 02:33N 37°57' E 023°38'0 0.0
2014-Nov-24 01:33N 37°57' E 023°38'0 0.0
2014-Nov-24 00:33N 37°57' E 023°38'0 0.0
2014-Nov-23 23:33N 37°57' E 023°38'0 0.0
2014-Nov-23 22:33N 37°57' E 023°38'0 0.4
2014-Nov-23 21:33N 37°56' E 023°38'3818.8
2014-Nov-23 19:33N 37°31' E 024°13'2120.5
2014-Nov-23 18:31N 37°33' E 024°40'1515.4
2014-Nov-23 17:33N 37°26' E 024°57'1717.4
2014-Nov-23 16:33N 37°28' E 025°18'1211.9
2014-Nov-23 15:33N 37°36' E 025°29'147 8.6
2014-Nov-22 22:25N 40°01' E 024°55'1821.2
2014-Nov-22 21:33N 40°17' E 024°42'2221.5
2014-Nov-22 20:33N 40°36' E 024°30'2120.5
2014-Nov-22 19:33N 40°56' E 024°24'0 0.1
2014-Nov-22 18:33N 40°56' E 024°25'0 0.0
2014-Nov-22 17:33N 40°56' E 024°25'0 0.0
2014-Nov-22 16:33N 40°56' E 024°25'1110.7
2014-Nov-22 15:34N 40°45' E 024°27'2121.4
2014-Nov-22 14:34N 40°25' E 024°37'2621.8
2014-Nov-22 13:21N 40°03' E 024°54'148 8.8
2014-Nov-21 20:30N 37°38' E 025°36'1717.7
2014-Nov-21 19:33N 37°28' E 025°19'1716.9
2014-Nov-21 18:33N 37°26' E 024°58'8 8.3
2014-Nov-21 17:33N 37°32' E 024°50'2221.5
2014-Nov-21 16:33N 37°31' E 024°23'3021.0
2014-Nov-21 15:07N 37°39' E 023°46'1120.7
2014-Nov-21 14:33N 37°48' E 023°38'9 8.6
2014-Nov-21 13:33N 37°57' E 023°38'0 0.0
2014-Nov-21 12:33N 37°57' E 023°38'0 0.0
2014-Nov-21 11:33N 37°57' E 023°38'0 0.0
2014-Nov-21 10:33N 37°57' E 023°38'0 0.0
2014-Nov-21 09:33N 37°57' E 023°38'0 0.0
2014-Nov-21 08:33N 37°57' E 023°38'0 0.0
2014-Nov-21 07:34N 37°57' E 023°38'0 0.0
2014-Nov-21 06:33N 37°57' E 023°38'0 0.0
2014-Nov-21 05:33N 37°57' E 023°38'0 0.0
2014-Nov-21 04:33N 37°57' E 023°38'0 0.0
2014-Nov-21 01:22N 37°57' E 023°38'0 0.0
2014-Nov-20 23:33N 37°57' E 023°38'0 0.0
2014-Nov-20 22:33N 37°57' E 023°38'0 0.0
2014-Nov-20 21:33N 37°57' E 023°38'1716.7
2014-Nov-20 20:33N 37°41' E 023°46'2721.5
2014-Nov-20 19:18N 37°30' E 024°18'1621.8
2014-Nov-20 18:34N 37°33' E 024°37'1714.1
2014-Nov-20 17:23N 37°26' E 024°57'1720.1
2014-Nov-20 16:33N 37°28' E 025°17'1211.7
2014-Nov-20 15:33N 37°37' E 025°27'163 9.1
2014-Nov-19 21:34N 40°16' E 024°43'2221.8
2014-Nov-19 20:34N 40°36' E 024°29'2120.6
2014-Nov-19 19:33N 40°56' E 024°24'0 0.2
2014-Nov-19 18:33N 40°56' E 024°25'0 0.0
2014-Nov-19 17:33N 40°56' E 024°25'4 4.2
2014-Nov-19 16:34N 40°52' E 024°26'2121.0
2014-Nov-19 15:34N 40°31' E 024°33'2120.8
2014-Nov-19 14:34N 40°13' E 024°46'165 9.6
2014-Nov-18 21:22N 37°39' E 026°01'2021.3
2014-Nov-18 20:26N 37°34' E 025°36'1517.5
2014-Nov-18 19:33N 37°28' E 025°19'1616.3
2014-Nov-18 18:33N 37°26' E 024°59'9 8.5
2014-Nov-18 17:34N 37°32' E 024°50'2221.5
2014-Nov-18 16:33N 37°31' E 024°23'2821.2
2014-Nov-18 15:13N 37°38' E 023°48'1320.2
2014-Nov-18 14:34N 37°48' E 023°38'8 2.0
2014-Nov-18 10:33N 37°57' E 023°38'0 0.0
2014-Nov-18 09:33N 37°57' E 023°38'0 0.0
2014-Nov-18 08:33N 37°57' E 023°38'0 0.0
2014-Nov-18 07:33N 37°57' E 023°38'0 0.0
2014-Nov-18 06:33N 37°57' E 023°38'0 0.0
2014-Nov-18 05:33N 37°57' E 023°38'0 0.0
2014-Nov-18 04:24N 37°57' E 023°38'0 0.0
2014-Nov-18 03:33N 37°57' E 023°38'0 0.0
2014-Nov-18 02:33N 37°57' E 023°38'0 0.0
2014-Nov-18 01:33N 37°57' E 023°38'0 0.0
2014-Nov-18 00:33N 37°57' E 023°38'0 0.0
2014-Nov-17 23:33N 37°57' E 023°38'0 0.0
2014-Nov-17 22:33N 37°57' E 023°38'0 0.0
2014-Nov-17 21:33N 37°57' E 023°38'0 0.0
2014-Nov-17 20:33N 37°57' E 023°38'0 0.0
2014-Nov-17 19:33N 37°57' E 023°38'0 0.0
2014-Nov-17 18:33N 37°57' E 023°38'0 0.0
2014-Nov-17 17:33N 37°57' E 023°38'0 0.0
2014-Nov-17 16:34N 37°57' E 023°38'0 0.0
2014-Nov-17 15:33N 37°57' E 023°38'0 0.0
2014-Nov-17 14:33N 37°57' E 023°38'0 0.0
2014-Nov-17 13:33N 37°57' E 023°38'0 0.0
2014-Nov-17 12:33N 37°57' E 023°38'0 0.0
2014-Nov-17 11:33N 37°57' E 023°38'0 0.0
2014-Nov-17 10:33N 37°57' E 023°38'0 0.0
2014-Nov-17 09:33N 37°57' E 023°38'0 0.0
2014-Nov-17 08:33N 37°57' E 023°38'0 0.0
2014-Nov-17 07:33N 37°57' E 023°38'0 0.0
2014-Nov-17 06:33N 37°57' E 023°38'0 0.0
2014-Nov-17 05:33N 37°57' E 023°38'0 0.0
2014-Nov-17 04:33N 37°57' E 023°38'0 0.0
2014-Nov-17 03:33N 37°57' E 023°38'0 0.0
2014-Nov-17 02:33N 37°57' E 023°38'0 0.0
2014-Nov-17 01:33N 37°57' E 023°38'0 0.0
2014-Nov-17 00:33N 37°57' E 023°38'0 0.0
2014-Nov-16 23:33N 37°57' E 023°38'0 0.0
2014-Nov-16 22:33N 37°57' E 023°38'  

Dump ship's entire track history